createdAt,value
2023-04-02T00:00:10.492Z,0.70
2023-04-02T00:02:58.824Z,0.90
2023-04-02T00:05:31.988Z,0.80
2023-04-02T00:08:03.184Z,0.93
2023-04-02T00:10:38.870Z,0.83
2023-04-02T00:13:11.829Z,0.83
2023-04-02T00:15:41.143Z,0.80
2023-04-02T00:18:13.181Z,0.93
2023-04-02T00:20:42.880Z,0.90
2023-04-02T00:23:14.433Z,1.10
2023-04-02T00:25:45.293Z,1.20
2023-04-02T00:28:18.848Z,1.07
2023-04-02T00:30:54.053Z,0.90
2023-04-02T00:33:23.606Z,0.97
2023-04-02T00:35:52.838Z,1.30
2023-04-02T00:38:30.449Z,1.20
2023-04-02T00:41:02.153Z,0.90
2023-04-02T00:43:31.776Z,1.17
2023-04-02T00:46:03.736Z,1.10
2023-04-02T00:48:33.524Z,1.10
2023-04-02T00:51:09.506Z,1.00
2023-04-02T00:53:37.074Z,1.13
2023-04-02T00:56:12.716Z,2.00
2023-04-02T00:58:40.517Z,1.07
2023-04-02T01:01:17.431Z,0.97
2023-04-02T01:04:05.634Z,0.97
2023-04-02T01:06:37.117Z,1.00
2023-04-02T01:09:15.183Z,1.03
2023-04-02T01:11:47.886Z,1.00
2023-04-02T01:14:36.543Z,1.23
2023-04-02T01:17:26.380Z,0.90
2023-04-02T01:20:11.859Z,1.00
2023-04-02T01:22:51.210Z,1.50
2023-04-02T01:25:24.979Z,1.20
2023-04-02T01:28:05.559Z,1.43
2023-04-02T01:30:36.016Z,1.30
2023-04-02T01:33:03.884Z,1.20
2023-04-02T01:35:36.586Z,1.20
2023-04-02T01:38:13.912Z,1.33
2023-04-02T01:40:51.323Z,1.00
2023-04-02T01:43:31.935Z,1.37
2023-04-02T01:46:00.233Z,1.20
2023-04-02T01:48:30.587Z,1.30
2023-04-02T01:51:00.335Z,0.97
2023-04-02T01:53:30.891Z,1.17
2023-04-02T01:56:01.153Z,1.47
2023-04-02T01:58:31.973Z,1.30
2023-04-02T02:01:08.380Z,1.13
2023-04-02T02:03:39.249Z,1.30
2023-04-02T02:06:06.533Z,2.70
2023-04-02T02:08:54.631Z,2.40
2023-04-02T02:11:24.194Z,2.20
2023-04-02T02:14:00.745Z,4.30
2023-04-02T02:16:29.866Z,2.03
2023-04-02T02:19:01.519Z,1.60
2023-04-02T02:21:43.427Z,1.07
2023-04-02T02:24:35.760Z,1.83
2023-04-02T02:27:28.717Z,2.10
2023-04-02T02:30:19.992Z,1.57
2023-04-02T02:32:53.587Z,1.60
2023-04-02T02:35:31.122Z,1.30
2023-04-02T02:38:28.662Z,1.13
2023-04-02T02:41:11.982Z,1.20
2023-04-02T02:43:42.056Z,1.60
2023-04-02T02:46:13.983Z,1.53
2023-04-02T02:48:43.065Z,2.00
2023-04-02T02:51:29.547Z,1.30
2023-04-02T02:54:03.214Z,1.90
2023-04-02T02:56:34.438Z,1.30
2023-04-02T02:59:02.046Z,1.50
2023-04-02T03:01:33.611Z,1.10
2023-04-02T03:04:03.967Z,1.13
2023-04-02T03:06:32.703Z,1.30
2023-04-02T03:09:17.396Z,1.00
2023-04-02T03:12:06.454Z,1.43
2023-04-02T03:14:40.023Z,1.00
2023-04-02T03:17:39.697Z,1.10
2023-04-02T03:20:16.005Z,2.23
2023-04-02T03:23:11.760Z,0.90
2023-04-02T03:25:50.430Z,1.30
2023-04-02T03:28:22.782Z,1.10
2023-04-02T03:30:56.991Z,1.20
2023-04-02T03:33:39.440Z,0.97
2023-04-02T03:36:18.920Z,1.40
2023-04-02T03:38:52.321Z,1.30
2023-04-02T03:41:45.886Z,1.00
2023-04-02T03:44:46.441Z,1.07
2023-04-02T03:47:23.216Z,1.43
2023-04-02T03:50:00.003Z,1.10
2023-04-02T03:52:29.674Z,1.07
2023-04-02T03:55:02.077Z,1.23
2023-04-02T03:57:40.698Z,1.17
2023-04-02T04:00:20.415Z,0.90
2023-04-02T04:02:59.118Z,1.40
2023-04-02T04:05:35.348Z,1.00
2023-04-02T04:08:14.181Z,0.97
2023-04-02T04:10:43.386Z,1.13
2023-04-02T04:13:15.308Z,1.17
2023-04-02T04:16:01.002Z,1.30
2023-04-02T04:18:42.517Z,1.23
2023-04-02T04:21:16.517Z,1.17
2023-04-02T04:23:50.322Z,1.10
2023-04-02T04:26:43.555Z,2.33
2023-04-02T04:29:18.305Z,2.90
2023-04-02T04:31:50.753Z,1.40
2023-04-02T04:34:25.395Z,1.60
2023-04-02T04:37:01.608Z,1.17
2023-04-02T04:39:41.488Z,1.37
2023-04-02T04:42:18.043Z,1.40
2023-04-02T04:45:10.168Z,1.40
2023-04-02T04:47:54.663Z,1.00
2023-04-02T04:50:32.978Z,0.97
2023-04-02T04:53:13.989Z,1.27
2023-04-02T04:55:46.924Z,1.70
2023-04-02T04:58:35.642Z,1.23
2023-04-02T05:01:28.324Z,1.27
2023-04-02T05:04:09.674Z,1.40
2023-04-02T05:06:48.999Z,1.47
2023-04-02T05:09:42.775Z,1.73
2023-04-02T05:12:35.326Z,4.03
2023-04-02T05:15:12.041Z,4.53
2023-04-02T05:17:55.590Z,5.10
2023-04-02T05:20:32.680Z,11.17
2023-04-02T05:23:24.979Z,11.63
2023-04-02T05:26:05.367Z,9.77
2023-04-02T05:28:48.841Z,2.40
2023-04-02T05:31:20.718Z,2.60
2023-04-02T05:33:49.367Z,1.63
2023-04-02T05:36:29.292Z,1.47
2023-04-02T05:39:00.085Z,1.43
2023-04-02T05:41:40.478Z,1.60
2023-04-02T05:44:27.714Z,1.60
2023-04-02T05:47:10.242Z,1.53
2023-04-02T05:49:50.120Z,1.30
2023-04-02T05:52:27.449Z,1.60
2023-04-02T05:55:12.817Z,1.30
2023-04-02T05:58:13.649Z,1.73
2023-04-02T06:00:39.181Z,1.40
2023-04-02T06:03:24.458Z,1.30
2023-04-02T06:05:56.356Z,1.40
2023-04-02T06:08:31.344Z,1.17
2023-04-02T06:11:27.163Z,1.57
2023-04-02T06:13:54.078Z,1.70
2023-04-02T06:16:27.144Z,4.90
2023-04-02T06:18:54.902Z,3.60
2023-04-02T06:21:22.537Z,2.83
2023-04-02T06:24:03.451Z,2.00
2023-04-02T06:26:39.459Z,1.93
2023-04-02T06:29:13.121Z,1.70
2023-04-02T06:31:57.390Z,6.43
2023-04-02T06:34:28.281Z,3.83
2023-04-02T06:37:03.376Z,6.40
2023-04-02T06:39:31.873Z,2.77
2023-04-02T06:42:07.534Z,2.20
2023-04-02T06:45:23.691Z,3.73
2023-04-02T06:48:16.088Z,3.70
2023-04-02T06:51:07.261Z,3.37
2023-04-02T06:53:38.644Z,2.87
2023-04-02T06:56:45.371Z,1.40
2023-04-02T06:59:16.731Z,0.70
2023-04-02T07:02:24.630Z,0.70
2023-04-02T07:04:52.160Z,0.60
2023-04-02T07:07:20.270Z,1.20
2023-04-02T07:09:48.678Z,1.40
2023-04-02T07:12:15.626Z,1.80
2023-04-02T07:14:43.504Z,1.10
2023-04-02T07:17:17.208Z,2.10
2023-04-02T07:19:49.053Z,2.30
2023-04-02T07:22:18.743Z,2.00
2023-04-02T07:24:48.922Z,2.07
2023-04-02T07:27:15.755Z,1.90
2023-04-02T07:29:43.045Z,2.80
2023-04-02T07:32:12.070Z,2.57
2023-04-02T07:34:40.598Z,2.50
2023-04-02T07:37:09.542Z,1.80
2023-04-02T07:39:37.907Z,1.10
2023-04-02T07:42:06.408Z,1.00
2023-04-02T07:44:33.112Z,0.90
2023-04-02T07:47:00.049Z,0.87
2023-04-02T07:49:27.370Z,0.80
2023-04-02T07:51:54.864Z,0.70
2023-04-02T07:54:21.841Z,0.80
2023-04-02T07:56:48.664Z,0.90
2023-04-02T07:59:15.542Z,1.20
2023-04-02T08:01:42.941Z,0.90
2023-04-02T08:04:21.358Z,0.60
2023-04-02T08:06:49.066Z,1.00
2023-04-02T08:09:16.754Z,0.80
2023-04-02T08:11:43.578Z,0.80
2023-04-02T08:14:10.731Z,0.90
2023-04-02T08:16:52.866Z,1.40
2023-04-02T08:19:20.574Z,0.80
2023-04-02T08:21:50.547Z,1.00
2023-04-02T08:24:19.297Z,4.70
2023-04-02T08:26:47.589Z,5.20
2023-04-02T08:29:14.445Z,1.87
2023-04-02T08:31:41.698Z,1.30
2023-04-02T08:34:09.117Z,1.03
2023-04-02T08:36:38.767Z,0.80
2023-04-02T08:39:10.801Z,0.80
2023-04-02T08:41:44.346Z,0.80
2023-04-02T08:44:39.838Z,0.90
2023-04-02T08:47:09.559Z,0.80
2023-04-02T08:49:38.926Z,0.70
2023-04-02T08:52:05.757Z,0.80
2023-04-02T08:54:43.637Z,0.70
2023-04-02T08:57:25.629Z,0.80
2023-04-02T09:00:21.170Z,0.70
2023-04-02T09:02:56.342Z,0.70
2023-04-02T09:05:33.251Z,0.70
2023-04-02T09:08:03.774Z,0.77
2023-04-02T09:10:50.890Z,1.47
2023-04-02T09:13:26.126Z,1.60
2023-04-02T09:16:11.187Z,1.30
2023-04-02T09:18:39.359Z,0.90
2023-04-02T09:21:23.308Z,0.90
2023-04-02T09:23:50.564Z,0.70
2023-04-02T09:26:31.185Z,1.20
2023-04-02T09:29:13.313Z,1.33
2023-04-02T09:32:24.531Z,1.00
2023-04-02T09:35:15.078Z,0.87
2023-04-02T09:38:09.825Z,0.80
2023-04-02T09:40:48.963Z,0.80
2023-04-02T09:43:18.592Z,1.00
2023-04-02T09:45:59.829Z,1.27
2023-04-02T09:48:44.434Z,0.80
2023-04-02T09:51:13.209Z,0.70
2023-04-02T09:53:51.891Z,0.80
2023-04-02T09:56:24.143Z,1.30
2023-04-02T09:59:03.281Z,0.80
2023-04-02T10:01:36.281Z,0.80
2023-04-02T10:04:05.247Z,0.70
2023-04-02T10:06:33.745Z,0.60
2023-04-02T10:09:26.281Z,0.90
2023-04-02T10:11:55.778Z,1.27
2023-04-02T10:14:32.244Z,1.00
2023-04-02T10:17:23.260Z,0.90
2023-04-02T10:19:58.260Z,1.07
2023-04-02T10:22:28.790Z,0.90
2023-04-02T10:24:55.892Z,0.80
2023-04-02T10:27:42.358Z,0.90
2023-04-02T10:30:32.361Z,1.20
2023-04-02T10:33:21.382Z,1.30
2023-04-02T10:36:11.672Z,2.27
2023-04-02T10:39:12.657Z,1.30
2023-04-02T10:41:45.586Z,1.50
2023-04-02T10:44:24.102Z,2.40
2023-04-02T10:46:50.822Z,1.20
2023-04-02T10:49:40.533Z,2.50
2023-04-02T10:52:19.117Z,1.57
2023-04-02T10:54:52.817Z,1.47
2023-04-02T10:57:38.027Z,2.20
2023-04-02T11:00:18.420Z,2.70
2023-04-02T11:03:06.030Z,1.10
2023-04-02T11:05:53.366Z,1.17
2023-04-02T11:08:27.830Z,1.10
2023-04-02T11:11:07.971Z,1.00
2023-04-02T11:13:45.786Z,0.83
2023-04-02T11:16:16.527Z,0.70
2023-04-02T11:19:03.896Z,2.03
2023-04-02T11:21:31.040Z,2.53
2023-04-02T11:24:01.020Z,2.40
2023-04-02T11:26:29.930Z,2.37
2023-04-02T11:29:15.006Z,0.93
2023-04-02T11:31:43.654Z,1.20
2023-04-02T11:34:16.502Z,0.80
2023-04-02T11:36:55.431Z,0.80
2023-04-02T11:39:45.856Z,0.80
2023-04-02T11:42:18.892Z,0.83
2023-04-02T11:44:46.304Z,0.63
2023-04-02T11:47:24.988Z,0.80
2023-04-02T11:49:54.673Z,0.70
2023-04-02T11:52:46.475Z,0.70
2023-04-02T11:55:58.589Z,0.90
2023-04-02T11:59:04.475Z,0.80
2023-04-02T12:01:56.840Z,0.70
2023-04-02T12:04:29.659Z,0.80
2023-04-02T12:07:10.551Z,1.00
2023-04-02T12:09:47.301Z,0.90
2023-04-02T12:12:31.948Z,1.10
2023-04-02T12:14:59.877Z,1.20
2023-04-02T12:17:35.996Z,1.40
2023-04-02T12:20:09.934Z,1.30
2023-04-02T12:22:46.000Z,0.97
2023-04-02T12:25:23.724Z,1.10
2023-04-02T12:28:18.530Z,1.10
2023-04-02T12:30:47.227Z,1.00
2023-04-02T12:33:15.124Z,1.20
2023-04-02T12:35:43.612Z,1.20
2023-04-02T12:38:23.965Z,1.00
2023-04-02T12:40:56.789Z,1.40
2023-04-02T12:43:35.318Z,1.10
2023-04-02T12:46:05.681Z,1.10
2023-04-02T12:48:34.951Z,0.80
2023-04-02T12:51:04.067Z,1.03
2023-04-02T12:53:40.469Z,0.97
2023-04-02T12:56:10.781Z,0.90
2023-04-02T12:58:40.556Z,1.10
2023-04-02T13:01:19.313Z,1.20
2023-04-02T13:04:06.488Z,1.20
2023-04-02T13:06:35.668Z,1.10
2023-04-02T13:09:06.047Z,1.30
2023-04-02T13:11:38.593Z,1.33
2023-04-02T13:14:07.940Z,1.53
2023-04-02T13:16:37.564Z,1.50
2023-04-02T13:19:27.243Z,1.30
2023-04-02T13:21:56.021Z,1.20
2023-04-02T13:24:27.977Z,1.20
2023-04-02T13:26:57.760Z,1.50
2023-04-02T13:29:31.657Z,1.57
2023-04-02T13:32:01.596Z,1.50
2023-04-02T13:34:29.062Z,1.30
2023-04-02T13:36:57.402Z,1.43
2023-04-02T13:39:24.490Z,1.17
2023-04-02T13:41:58.566Z,1.00
2023-04-02T13:44:31.302Z,1.10
2023-04-02T13:46:58.765Z,1.33
2023-04-02T13:49:26.318Z,1.17
2023-04-02T13:51:58.015Z,0.90
2023-04-02T13:54:27.711Z,1.07
2023-04-02T13:56:55.951Z,1.00
2023-04-02T13:59:23.593Z,1.20
2023-04-02T14:01:53.294Z,1.40
2023-04-02T14:04:25.268Z,0.90
2023-04-02T14:07:07.226Z,0.90
2023-04-02T14:10:01.478Z,1.20
2023-04-02T14:13:02.272Z,1.33
2023-04-02T14:15:40.381Z,1.03
2023-04-02T14:18:26.785Z,1.20
2023-04-02T14:21:14.645Z,1.20
2023-04-02T14:23:56.603Z,1.10
2023-04-02T14:26:55.062Z,1.30
2023-04-02T14:29:33.025Z,1.57
2023-04-02T14:32:24.421Z,1.30
2023-04-02T14:35:14.803Z,1.40
2023-04-02T14:38:18.758Z,1.33
2023-04-02T14:40:49.614Z,1.50
2023-04-02T14:43:23.541Z,1.50
2023-04-02T14:46:02.020Z,2.00
2023-04-02T14:48:57.032Z,1.73
2023-04-02T14:51:53.408Z,1.50
2023-04-02T14:54:45.090Z,1.40
2023-04-02T14:57:21.673Z,1.50
2023-04-02T14:59:54.252Z,2.00
2023-04-02T15:02:40.251Z,2.93
2023-04-02T15:05:21.462Z,1.90
2023-04-02T15:08:06.281Z,2.00
2023-04-02T15:10:40.306Z,1.70
2023-04-02T15:13:17.472Z,2.07
2023-04-02T15:16:03.326Z,1.80
2023-04-02T15:18:30.294Z,1.63
2023-04-02T15:21:25.559Z,2.20
2023-04-02T15:24:24.396Z,1.57
2023-04-02T15:27:33.102Z,3.03
2023-04-02T15:30:25.488Z,2.67
2023-04-02T15:32:57.724Z,1.93
2023-04-02T15:35:38.003Z,2.17
2023-04-02T15:38:21.589Z,2.40
2023-04-02T15:41:14.409Z,2.10
2023-04-02T15:43:48.058Z,2.30
2023-04-02T15:46:28.354Z,2.10
2023-04-02T15:49:17.506Z,1.93
2023-04-02T15:52:01.909Z,1.90
2023-04-02T15:54:46.598Z,1.97
2023-04-02T15:57:34.624Z,1.87
2023-04-02T16:00:23.051Z,2.00
2023-04-02T16:03:20.868Z,2.20
2023-04-02T16:06:10.652Z,2.40
2023-04-02T16:08:47.904Z,2.20
2023-04-02T16:11:16.002Z,2.30
2023-04-02T16:13:43.851Z,2.60
2023-04-02T16:16:22.528Z,1.90
2023-04-02T16:19:24.353Z,1.63
2023-04-02T16:22:02.291Z,2.27
2023-04-02T16:24:29.522Z,2.90
2023-04-02T16:27:30.771Z,2.90
2023-04-02T16:30:28.311Z,2.70
2023-04-02T16:33:22.912Z,2.90
2023-04-02T16:36:01.479Z,2.83
2023-04-02T16:38:53.021Z,2.50
2023-04-02T16:41:37.890Z,2.70
2023-04-02T16:44:36.020Z,2.10
2023-04-02T16:47:23.927Z,2.07
2023-04-02T16:50:21.411Z,2.60
2023-04-02T16:53:15.268Z,1.90
2023-04-02T16:56:17.580Z,2.00
2023-04-02T16:58:56.522Z,2.80
2023-04-02T17:01:54.747Z,3.00
2023-04-02T17:04:36.540Z,2.23
2023-04-02T17:07:15.748Z,1.70
2023-04-02T17:09:51.460Z,1.73
2023-04-02T17:12:43.016Z,1.90
2023-04-02T17:15:27.899Z,1.67
2023-04-02T17:18:01.594Z,1.80
2023-04-02T17:20:28.569Z,1.50
2023-04-02T17:22:56.043Z,1.80
2023-04-02T17:25:33.965Z,1.70
2023-04-02T17:28:02.588Z,1.80
2023-04-02T17:30:39.474Z,2.40
2023-04-02T17:33:16.970Z,1.90
2023-04-02T17:36:32.869Z,2.60
2023-04-02T17:39:11.813Z,1.97
2023-04-02T17:41:49.991Z,2.40
2023-04-02T17:44:44.229Z,2.23
2023-04-02T17:47:23.178Z,2.13
2023-04-02T17:49:58.294Z,4.97
2023-04-02T17:52:39.857Z,2.40
2023-04-02T17:55:18.559Z,2.00
2023-04-02T17:58:29.361Z,1.77
2023-04-02T18:01:04.608Z,2.37
2023-04-02T18:03:49.340Z,2.20
2023-04-02T18:06:19.063Z,2.77
2023-04-02T18:09:04.415Z,2.43
2023-04-02T18:11:55.626Z,2.77
2023-04-02T18:14:37.793Z,2.30
2023-04-02T18:17:21.418Z,1.90
2023-04-02T18:20:05.377Z,2.17
2023-04-02T18:22:54.292Z,1.93
2023-04-02T18:25:32.827Z,1.90
2023-04-02T18:28:08.947Z,2.20
2023-04-02T18:31:06.109Z,1.80
2023-04-02T18:33:58.581Z,1.93
2023-04-02T18:36:50.959Z,1.80
2023-04-02T18:39:51.378Z,2.20
2023-04-02T18:42:36.687Z,1.90
2023-04-02T18:45:44.920Z,2.50
2023-04-02T18:48:42.510Z,1.80
2023-04-02T18:51:21.881Z,1.83
2023-04-02T18:54:03.465Z,1.20
2023-04-02T18:56:31.589Z,2.27
2023-04-02T18:59:29.277Z,1.83
2023-04-02T19:01:57.799Z,2.20
2023-04-02T19:04:30.735Z,2.27
2023-04-02T19:07:07.077Z,2.23
2023-04-02T19:09:42.712Z,2.20
2023-04-02T19:12:32.261Z,1.47
2023-04-02T19:14:59.228Z,1.90
2023-04-02T19:17:41.877Z,1.57
2023-04-02T19:20:32.630Z,1.93
2023-04-02T19:23:37.813Z,2.97
2023-04-02T19:26:14.076Z,2.10
2023-04-02T19:29:03.790Z,2.27
2023-04-02T19:31:54.312Z,1.90
2023-04-02T19:34:39.307Z,1.50
2023-04-02T19:37:12.657Z,2.20
2023-04-02T19:40:12.791Z,2.10
2023-04-02T19:42:43.851Z,2.40
2023-04-02T19:45:29.789Z,1.93
2023-04-02T19:47:58.636Z,2.03
2023-04-02T19:50:25.676Z,3.50
2023-04-02T19:52:52.387Z,2.30
2023-04-02T19:55:19.250Z,1.93
2023-04-02T19:57:45.921Z,1.83
2023-04-02T20:00:14.516Z,1.97
2023-04-02T20:02:41.400Z,2.17
2023-04-02T20:05:08.559Z,1.77
2023-04-02T20:07:35.491Z,1.80
2023-04-02T20:10:02.338Z,1.77
2023-04-02T20:12:29.062Z,1.90
2023-04-02T20:14:56.023Z,2.50
2023-04-02T20:17:22.869Z,1.60
2023-04-02T20:19:49.653Z,2.10
2023-04-02T20:22:16.540Z,1.63
2023-04-02T20:24:43.407Z,1.70
2023-04-02T20:27:10.425Z,1.80
2023-04-02T20:29:37.196Z,2.50
2023-04-02T20:32:04.070Z,2.07
2023-04-02T20:34:31.010Z,2.10
2023-04-02T20:36:58.070Z,1.37
2023-04-02T20:39:25.019Z,1.60
2023-04-02T20:41:51.801Z,1.40
2023-04-02T20:44:18.638Z,1.57
2023-04-02T20:46:45.947Z,1.83
2023-04-02T20:49:12.651Z,1.70
2023-04-02T20:51:39.651Z,1.53
2023-04-02T20:54:06.392Z,1.90
2023-04-02T20:56:33.172Z,1.67
2023-04-02T20:59:00.027Z,1.77
2023-04-02T21:01:29.177Z,1.73
2023-04-02T21:04:01.203Z,1.90
2023-04-02T21:06:30.759Z,1.60
2023-04-02T21:08:57.985Z,1.60
2023-04-02T21:11:26.132Z,1.90
2023-04-02T21:13:53.190Z,1.57
2023-04-02T21:16:27.915Z,1.67
2023-04-02T21:18:56.309Z,1.60
2023-04-02T21:21:23.401Z,2.47
2023-04-02T21:23:56.106Z,2.07
2023-04-02T21:26:23.342Z,1.73
2023-04-02T21:28:50.028Z,1.80
2023-04-02T21:31:19.796Z,1.77
2023-04-02T21:33:52.280Z,1.63
2023-04-02T21:36:21.658Z,1.60
2023-04-02T21:38:56.203Z,1.80
2023-04-02T21:41:42.846Z,1.73
2023-04-02T21:44:14.595Z,2.57
2023-04-02T21:46:45.715Z,2.30
2023-04-02T21:49:15.786Z,2.40
2023-04-02T21:51:44.262Z,2.80
2023-04-02T21:54:11.020Z,2.20
2023-04-02T21:56:40.614Z,2.67
2023-04-02T21:59:09.705Z,1.90
2023-04-02T22:01:39.748Z,2.30
2023-04-02T22:04:08.039Z,1.40
2023-04-02T22:06:40.991Z,1.93
2023-04-02T22:09:11.207Z,1.47
2023-04-02T22:11:43.612Z,1.97
2023-04-02T22:14:10.998Z,2.00
2023-04-02T22:16:38.319Z,1.80
2023-04-02T22:19:08.701Z,1.77
2023-04-02T22:21:36.313Z,1.93
2023-04-02T22:24:05.604Z,1.30
2023-04-02T22:26:33.920Z,1.40
2023-04-02T22:29:01.430Z,2.10
2023-04-02T22:31:31.492Z,1.80
2023-04-02T22:33:58.784Z,1.63
2023-04-02T22:36:29.396Z,2.03
2023-04-02T22:38:57.133Z,1.87
2023-04-02T22:41:27.511Z,1.90
2023-04-02T22:43:56.054Z,2.30
2023-04-02T22:46:23.348Z,1.83
2023-04-02T22:48:50.677Z,2.37
2023-04-02T22:51:19.885Z,1.90
2023-04-02T22:53:47.100Z,1.97
2023-04-02T22:56:16.478Z,1.83
2023-04-02T22:58:43.704Z,1.53
2023-04-02T23:01:12.377Z,1.77
2023-04-02T23:03:39.147Z,2.03
2023-04-02T23:06:08.671Z,1.50
2023-04-02T23:08:36.707Z,1.73
2023-04-02T23:11:15.029Z,1.60
2023-04-02T23:13:42.080Z,1.27
2023-04-02T23:16:12.934Z,1.50
2023-04-02T23:18:41.321Z,1.50
2023-04-02T23:21:08.735Z,2.03
2023-04-02T23:23:35.890Z,1.60
2023-04-02T23:26:27.142Z,2.30
2023-04-02T23:28:53.953Z,1.97
2023-04-02T23:31:22.849Z,1.87
2023-04-02T23:33:51.410Z,1.87
2023-04-02T23:36:27.460Z,1.93
2023-04-02T23:38:56.578Z,1.57
2023-04-02T23:41:26.659Z,1.50
2023-04-02T23:43:54.335Z,1.93
2023-04-02T23:46:22.296Z,2.10
2023-04-02T23:48:50.857Z,1.70
2023-04-02T23:51:18.239Z,2.07
2023-04-02T23:53:45.155Z,2.00
2023-04-02T23:56:11.855Z,1.80
2023-04-02T23:58:39.047Z,1.53
